Aviation Digital Data Service (ADDS)

Output produced by METARs form (0418 UTC 31 August 2016)
found at http://aviationweather.gov/adds/metars/
 
KGSO 302338Z 3100/3124 05005KT P6SM SCT250